createdAt,value
2022-12-28T03:21:38.704Z,7.10
2022-12-28T03:24:27.697Z,9.00
2022-12-28T03:27:16.995Z,9.00
2022-12-28T03:30:09.497Z,8.80
2022-12-28T03:32:38.121Z,8.90
2022-12-28T03:35:07.284Z,9.00
2022-12-28T03:37:38.900Z,9.00
2022-12-28T03:40:28.471Z,9.00
2022-12-28T03:43:18.768Z,9.10
2022-12-28T03:45:58.939Z,9.10
2022-12-28T03:48:27.798Z,9.10
2022-12-28T03:50:56.707Z,9.10
2022-12-28T03:53:31.086Z,8.50
2022-12-28T03:56:07.797Z,9.10
2022-12-28T03:58:36.420Z,9.20
2022-12-28T04:01:05.540Z,9.20
2022-12-28T04:03:35.098Z,9.20
2022-12-28T04:06:03.708Z,9.20
2022-12-28T04:08:33.511Z,9.30
2022-12-28T04:11:02.585Z,9.30
2022-12-28T04:13:32.686Z,9.40
2022-12-28T04:16:03.398Z,9.40
2022-12-28T05:28:10.339Z,9.40
2022-12-28T07:59:04.465Z,10.90
2022-12-28T08:01:35.584Z,11.50
2022-12-28T08:04:07.185Z,11.50
2022-12-28T08:06:38.375Z,11.50
2022-12-28T08:09:08.659Z,11.60
2022-12-28T08:11:40.320Z,11.60
2022-12-28T08:14:09.589Z,11.60
2022-12-28T08:16:41.089Z,11.60
2022-12-28T08:19:10.675Z,11.70
2022-12-28T08:21:42.020Z,11.70
2022-12-28T08:24:12.783Z,11.70
2022-12-28T08:26:42.280Z,11.70
2022-12-28T08:29:17.251Z,11.70
2022-12-28T08:31:46.545Z,11.80
2022-12-28T08:34:22.924Z,11.80
2022-12-28T08:36:51.483Z,11.80
2022-12-28T08:39:20.077Z,11.90
2022-12-28T08:41:48.687Z,11.90
2022-12-28T08:44:17.241Z,11.90
2022-12-28T08:46:45.909Z,11.90
2022-12-28T08:49:14.676Z,12.00
2022-12-28T08:51:43.450Z,12.00
2022-12-28T08:54:13.885Z,12.00
2022-12-28T08:56:44.562Z,12.00
2022-12-28T10:10:02.670Z,12.40
2022-12-28T10:12:31.270Z,12.80
2022-12-28T10:15:00.686Z,12.90
2022-12-28T10:17:30.464Z,12.90
2022-12-28T10:20:00.473Z,13.00
2022-12-28T10:22:33.495Z,13.00
2022-12-28T10:25:02.202Z,13.00
2022-12-28T10:27:32.363Z,13.00
2022-12-28T10:30:03.300Z,13.00
2022-12-28T10:32:40.711Z,13.00
2022-12-28T10:35:12.336Z,13.00
2022-12-28T10:37:44.424Z,13.00
2022-12-28T10:40:24.661Z,13.80
2022-12-28T10:42:55.200Z,13.10
2022-12-28T10:45:41.758Z,13.20
2022-12-28T10:48:18.908Z,13.20
2022-12-28T10:50:55.935Z,13.20
2022-12-28T10:53:33.264Z,13.20
2022-12-28T10:56:05.192Z,13.10
2022-12-28T10:58:34.903Z,13.20
2022-12-28T11:01:09.218Z,13.10
2022-12-28T11:03:39.805Z,13.20
2022-12-28T11:06:26.717Z,13.20
2022-12-28T11:09:16.016Z,13.20
2022-12-28T11:11:46.516Z,13.10
2022-12-28T11:14:18.083Z,13.20
2022-12-28T11:16:46.756Z,13.10
2022-12-28T11:19:16.023Z,13.20
2022-12-28T11:21:45.308Z,13.10
2022-12-28T11:24:16.271Z,13.10
2022-12-28T11:26:47.520Z,13.10
2022-12-28T11:29:18.318Z,13.10
2022-12-28T11:31:49.994Z,13.10
2022-12-28T11:34:21.596Z,13.20
2022-12-28T11:36:50.582Z,13.20
2022-12-28T11:39:28.273Z,13.20
2022-12-28T11:44:34.854Z,13.20
2022-12-28T11:47:06.647Z,13.40
2022-12-28T11:49:37.039Z,13.20
2022-12-28T11:52:25.178Z,13.20
2022-12-28T11:54:56.795Z,13.20
2022-12-28T11:57:42.773Z,13.10
2022-12-28T12:00:24.048Z,13.10
2022-12-28T12:03:04.190Z,13.10
2022-12-28T12:05:41.720Z,13.10
2022-12-28T12:08:16.744Z,13.00
2022-12-28T12:10:48.253Z,13.10
2022-12-28T12:13:31.818Z,13.00
2022-12-28T12:16:05.084Z,13.00
2022-12-28T12:18:36.771Z,13.00
2022-12-28T12:21:15.380Z,12.90
2022-12-28T12:23:48.853Z,12.90
2022-12-28T12:26:25.741Z,12.90
2022-12-28T12:29:02.514Z,12.90
2022-12-28T12:31:45.903Z,12.80
2022-12-28T12:34:20.410Z,12.80
2022-12-28T12:37:00.086Z,12.80
2022-12-28T12:39:31.756Z,12.80
2022-12-28T12:42:19.473Z,12.70
2022-12-28T12:44:59.695Z,12.80
2022-12-28T12:47:49.260Z,12.70
2022-12-28T12:50:23.957Z,12.70
2022-12-28T12:52:55.743Z,12.70
2022-12-28T12:55:45.224Z,12.70
2022-12-28T12:58:28.742Z,12.70
2022-12-28T13:01:19.858Z,12.70
2022-12-28T13:03:50.390Z,12.70
2022-12-28T13:06:21.931Z,12.50
2022-12-28T13:08:53.903Z,12.50
2022-12-28T13:11:23.665Z,12.50
2022-12-28T13:13:54.926Z,12.50
2022-12-28T13:16:26.721Z,12.60
2022-12-28T13:19:00.792Z,12.40
2022-12-28T13:21:32.517Z,12.60
2022-12-28T13:24:01.067Z,12.60
2022-12-28T13:26:30.675Z,12.60
2022-12-28T13:29:04.916Z,12.60
2022-12-28T13:31:41.994Z,12.60
2022-12-28T13:34:32.953Z,12.60
2022-12-28T13:37:03.566Z,12.60
2022-12-28T13:39:41.769Z,12.60
2022-12-28T13:42:08.986Z,12.60
2022-12-28T13:44:55.706Z,12.60
2022-12-28T13:47:33.379Z,12.60
2022-12-28T13:50:19.807Z,12.60
2022-12-28T13:52:54.256Z,12.60
2022-12-28T13:55:25.913Z,12.60
2022-12-28T13:57:59.649Z,12.60
2022-12-28T14:00:29.858Z,12.60
2022-12-28T14:03:00.421Z,12.50
2022-12-28T14:05:31.514Z,12.60
2022-12-28T14:08:02.414Z,12.50
2022-12-28T14:10:31.117Z,12.60
2022-12-28T14:13:00.139Z,12.60
2022-12-28T14:15:29.348Z,12.60
2022-12-28T14:17:58.435Z,12.60
2022-12-28T14:20:27.164Z,12.60
2022-12-28T14:22:55.859Z,12.60
2022-12-28T14:25:24.617Z,12.90
2022-12-28T14:28:05.926Z,12.50
2022-12-28T14:30:42.793Z,12.60
2022-12-28T14:33:24.074Z,12.60
2022-12-28T14:35:50.755Z,11.90
2022-12-28T14:38:22.965Z,12.60
2022-12-28T14:40:57.061Z,12.50
2022-12-28T14:43:28.391Z,12.50
2022-12-28T14:46:07.614Z,12.60
2022-12-28T14:48:42.067Z,12.50
2022-12-28T14:51:19.672Z,12.50
2022-12-28T14:54:06.684Z,12.50
2022-12-28T14:56:36.167Z,12.50
2022-12-28T14:59:06.791Z,12.50
2022-12-28T15:01:47.127Z,12.50
2022-12-28T15:04:36.883Z,12.40
2022-12-28T15:07:07.120Z,12.40
2022-12-28T15:09:36.068Z,12.40
2022-12-28T15:12:20.858Z,12.40
2022-12-28T15:14:50.248Z,12.40
2022-12-28T15:17:19.250Z,12.40
2022-12-28T15:19:47.809Z,12.40
2022-12-28T15:22:16.380Z,12.40
2022-12-28T15:24:48.782Z,12.40
2022-12-28T15:27:17.326Z,12.40
2022-12-28T15:30:18.889Z,12.40
2022-12-28T15:32:16.099Z,12.40
2022-12-28T15:34:44.783Z,12.40
2022-12-28T15:37:13.357Z,12.40
2022-12-28T15:39:41.939Z,12.30
2022-12-28T15:42:11.521Z,12.40
2022-12-28T15:44:43.310Z,12.30
2022-12-28T15:47:12.021Z,12.30
2022-12-28T15:49:40.639Z,12.30
2022-12-28T15:52:09.223Z,12.30
2022-12-28T15:54:42.515Z,12.30
2022-12-28T15:57:11.520Z,12.30
2022-12-28T15:59:40.058Z,12.30
2022-12-28T16:02:11.236Z,12.30
2022-12-28T16:04:39.877Z,12.30
2022-12-28T16:07:08.601Z,12.30
2022-12-28T16:09:37.218Z,12.30
2022-12-28T16:12:06.435Z,12.30
2022-12-28T16:14:35.011Z,12.40
2022-12-28T16:17:03.619Z,12.40
2022-12-28T16:19:32.179Z,12.40
2022-12-28T16:22:00.825Z,12.40
2022-12-28T16:24:29.373Z,12.50
2022-12-28T16:26:57.932Z,12.40
2022-12-28T16:29:26.516Z,12.50
2022-12-28T16:31:56.353Z,12.60
2022-12-28T16:34:25.064Z,12.50
2022-12-28T16:36:55.272Z,12.50
2022-12-28T16:39:24.078Z,12.50
2022-12-28T16:41:52.703Z,12.50
2022-12-28T16:44:23.285Z,12.50
2022-12-28T16:46:53.956Z,12.50
2022-12-28T16:49:22.572Z,12.50
2022-12-28T16:51:51.119Z,12.40
2022-12-28T16:54:21.613Z,12.30
2022-12-28T16:56:51.423Z,12.30
2022-12-28T16:59:28.389Z,12.20
2022-12-28T17:01:58.821Z,12.10
2022-12-28T17:04:27.735Z,12.10
2022-12-28T17:06:56.333Z,12.00
2022-12-28T17:09:24.927Z,11.80
2022-12-28T17:11:53.564Z,11.70
2022-12-28T17:14:37.063Z,11.60
2022-12-28T17:16:52.666Z,11.50
2022-12-28T17:19:22.264Z,11.40
2022-12-28T17:21:50.819Z,11.30
2022-12-28T17:24:19.421Z,11.20
2022-12-28T17:26:48.168Z,11.10
2022-12-28T17:31:45.785Z,11.00
2022-12-28T17:34:15.351Z,10.80
2022-12-28T17:36:45.151Z,10.70
2022-12-28T17:39:13.683Z,10.70
2022-12-28T17:41:42.329Z,10.70
2022-12-28T17:44:13.377Z,11.10
2022-12-28T17:46:42.068Z,10.50
